Time;durP1;ratioP1;P1;durP2;ratioP2;P2;SDS_P1;SDS_P2;PMS_P1;PMS_P2;Temp;Humidity;BMP_temperature;BMP_pressure;BME280_temperature;BME280_humidity;BME280_pressure;Samples;Min_cycle;Max_cycle;Signal;HPM_P1;HPM_P2
2023/11/09 00:00:11;;;;;;;3.43;3.13;;;7.50;99.90;;;;;;5037071;28;20214;-38
2023/11/09 00:02:37;;;;;;;3.43;3.03;;;7.50;99.90;;;;;;5036868;28;20198;-38
2023/11/09 00:05:03;;;;;;;5.73;3.80;;;7.50;99.90;;;;;;5036990;28;20433;-37
2023/11/09 00:07:31;;;;;;;4.30;3.90;;;7.50;99.90;;;;;;5036992;28;20178;-39
2023/11/09 00:09:57;;;;;;;3.63;2.93;;;7.50;99.90;;;;;;5036582;28;20429;-39
2023/11/09 00:12:23;;;;;;;3.93;3.53;;;7.50;99.90;;;;;;5035974;28;20794;-39
2023/11/09 00:14:49;;;;;;;3.60;2.93;;;7.50;99.90;;;;;;5034782;28;20465;-37
2023/11/09 00:17:15;;;;;;;3.07;2.60;;;7.50;99.90;;;;;;5034118;28;20277;-37
2023/11/09 00:19:41;;;;;;;3.60;3.30;;;7.50;99.90;;;;;;5017398;28;20421;-40
2023/11/09 00:22:09;;;;;;;4.63;3.50;;;7.50;99.90;;;;;;5034653;28;20463;-38
2023/11/09 00:24:35;;;;;;;3.50;2.90;;;7.50;99.90;;;;;;5034425;28;20441;-38
2023/11/09 00:27:00;;;;;;;3.57;3.27;;;7.50;99.90;;;;;;5038635;28;20536;-38
2023/11/09 00:29:27;;;;;;;3.63;2.70;;;7.50;99.90;;;;;;5038192;28;20437;-39
2023/11/09 00:31:52;;;;;;;3.30;3.00;;;7.50;99.90;;;;;;5038558;28;20214;-38
2023/11/09 00:34:18;;;;;;;4.03;3.37;;;7.50;99.90;;;;;;5038228;28;20456;-39
2023/11/09 00:36:43;;;;;;;3.20;2.80;;;7.60;99.90;;;;;;5037767;28;20174;-39
2023/11/09 00:39:12;;;;;;;3.47;2.80;;;7.60;99.90;;;;;;5038627;28;20183;-39
2023/11/09 00:41:39;;;;;;;3.00;2.77;;;7.60;99.90;;;;;;5037798;28;20413;-39
2023/11/09 00:44:05;;;;;;;3.40;2.93;;;7.60;99.90;;;;;;5037523;28;20671;-39
2023/11/09 00:46:31;;;;;;;2.80;2.50;;;7.60;99.90;;;;;;5038010;28;20812;-39
2023/11/09 00:48:57;;;;;;;3.33;2.90;;;7.60;99.90;;;;;;5038659;28;20435;-39
2023/11/09 00:51:23;;;;;;;3.63;3.13;;;7.60;99.90;;;;;;5037677;28;20229;-40
2023/11/09 00:53:48;;;;;;;2.73;2.53;;;7.60;99.90;;;;;;5037617;28;20440;-38
2023/11/09 00:56:15;;;;;;;3.57;3.10;;;7.60;99.90;;;;;;5039245;28;20579;-39
2023/11/09 00:58:41;;;;;;;3.03;2.73;;;7.60;99.90;;;;;;5021620;28;20183;-39
2023/11/09 01:01:07;;;;;;;3.30;3.00;;;7.60;99.90;;;;;;5039105;28;20461;-39
2023/11/09 01:03:32;;;;;;;4.73;2.83;;;7.60;99.90;;;;;;5039334;28;20221;-38
2023/11/09 01:06:00;;;;;;;8.00;5.00;;;7.60;99.90;;;;;;5038777;28;20428;-42
2023/11/09 01:08:26;;;;;;;7.10;5.23;;;8.00;99.90;;;;;;5039390;28;20194;-40
2023/11/09 01:10:52;;;;;;;6.00;5.00;;;8.90;1.00;;;;;;5039161;28;20433;-39
2023/11/09 01:13:17;;;;;;;7.17;4.60;;;9.60;1.00;;;;;;5039553;28;20413;-39
2023/11/09 01:15:43;;;;;;;5.30;4.03;;;9.80;1.00;;;;;;5039437;28;20267;-39
2023/11/09 01:18:11;;;;;;;4.57;3.80;;;9.80;1.00;;;;;;5038234;28;20260;-42
2023/11/09 01:20:37;;;;;;;6.07;3.87;;;9.60;99.90;;;;;;5038149;28;20210;-39
2023/11/09 01:23:04;;;;;;;3.10;2.80;;;9.30;1.00;;;;;;5038606;28;20430;-37
2023/11/09 01:25:29;;;;;;;4.40;3.90;;;9.10;99.90;;;;;;5038606;28;20845;-41
2023/11/09 01:27:55;;;;;;;3.40;2.87;;;8.90;99.90;;;;;;5038367;28;20483;-39
2023/11/09 01:30:21;;;;;;;3.23;2.90;;;8.70;1.00;;;;;;5039127;28;20284;-38
2023/11/09 01:32:46;;;;;;;4.70;3.10;;;8.50;1.00;;;;;;5021770;28;20187;-39
2023/11/09 01:35:12;;;;;;;4.30;3.33;;;8.40;1.00;;;;;;5038398;28;20195;-38
2023/11/09 01:37:38;;;;;;;3.90;3.50;;;8.30;99.90;;;;;;5037760;28;20178;-38
2023/11/09 01:40:05;;;;;;;3.60;3.30;;;8.20;1.00;;;;;;5038010;28;20484;-39
2023/11/09 01:42:30;;;;;;;4.33;3.27;;;8.20;99.90;;;;;;5038302;28;20226;-38
2023/11/09 01:44:56;;;;;;;3.33;2.67;;;8.10;99.90;;;;;;5038951;28;20421;-37
2023/11/09 01:47:22;;;;;;;2.97;2.70;;;8.00;4.70;;;;;;5038360;28;20639;-40
2023/11/09 01:49:49;;;;;;;4.63;3.10;;;8.00;1.00;;;;;;5020691;28;20241;-41
2023/11/09 01:52:15;;;;;;;3.50;3.17;;;7.90;1.00;;;;;;5037128;28;20437;-39
2023/11/09 01:54:41;;;;;;;4.10;2.87;;;7.90;1.00;;;;;;5020311;28;20445;-39
2023/11/09 01:57:07;;;;;;;3.37;3.00;;;7.90;1.00;;;;;;5038604;28;20304;-40
2023/11/09 01:59:34;;;;;;;3.90;3.50;;;7.80;99.90;;;;;;5037790;28;20445;-38
2023/11/09 02:02:02;;;;;;;3.63;3.20;;;7.80;99.90;;;;;;5020450;28;20476;-38
2023/11/09 02:04:28;;;;;;;3.60;3.10;;;7.80;99.90;;;;;;5020675;28;20421;-38
2023/11/09 02:06:54;;;;;;;3.70;3.40;;;7.80;99.90;;;;;;5038367;28;20479;-40
2023/11/09 02:09:20;;;;;;;4.03;3.10;;;7.80;99.90;;;;;;5038303;28;20428;-38
2023/11/09 02:11:47;;;;;;;3.07;2.70;;;7.70;99.90;;;;;;5038136;28;20194;-38
2023/11/09 02:14:14;;;;;;;4.13;2.90;;;7.70;99.90;;;;;;5038069;28;20436;-41
2023/11/09 02:16:40;;;;;;;4.57;3.23;;;7.70;99.90;;;;;;5037924;28;20791;-39
2023/11/09 02:19:07;;;;;;;4.27;2.70;;;7.70;99.90;;;;;;5037265;28;20656;-38
2023/11/09 02:21:34;;;;;;;3.67;2.77;;;7.70;98.50;;;;;;5002760;28;20222;-39
2023/11/09 02:24:00;;;;;;;3.27;2.87;;;7.60;94.00;;;;;;5018785;28;20433;-40
2023/11/09 02:26:27;;;;;;;3.23;2.40;;;7.60;59.60;;;;;;5036376;28;20429;-38
2023/11/09 02:28:53;;;;;;;3.57;2.50;;;7.60;16.00;;;;;;5001423;28;20437;-39
2023/11/09 02:31:18;;;;;;;3.47;2.80;;;7.60;9.80;;;;;;5035597;28;20413;-38
2023/11/09 02:33:44;;;;;;;5.87;2.70;;;7.60;18.90;;;;;;5036313;28;20483;-38
2023/11/09 02:36:09;;;;;;;3.17;2.60;;;7.60;16.00;;;;;;5035995;28;20225;-39
2023/11/09 02:38:35;;;;;;;3.00;2.40;;;7.60;11.90;;;;;;5036894;28;20186;-39
2023/11/09 02:41:01;;;;;;;3.47;2.50;;;7.60;5.10;;;;;;5037212;28;20230;-39
2023/11/09 02:43:27;;;;;;;3.17;2.73;;;7.60;1.40;;;;;;5037337;28;20433;-38
2023/11/09 02:45:53;;;;;;;3.63;3.33;;;7.60;1.00;;;;;;5037835;28;20448;-39
2023/11/09 02:48:19;;;;;;;3.13;2.83;;;7.60;5.00;;;;;;5036666;28;20345;-39
2023/11/09 02:50:44;;;;;;;3.30;2.57;;;7.60;20.80;;;;;;5037663;28;20536;-39
2023/11/09 02:53:10;;;;;;;3.30;2.73;;;7.60;16.40;;;;;;5037766;28;20263;-39
2023/11/09 02:55:36;;;;;;;2.93;2.63;;;7.60;1.00;;;;;;5036557;28;20182;-39
2023/11/09 02:58:03;;;;;;;3.33;3.00;;;7.60;1.00;;;;;;5037131;28;20186;-39
2023/11/09 03:00:29;;;;;;;3.50;2.73;;;7.60;1.00;;;;;;5037181;28;20214;-39
2023/11/09 03:02:55;;;;;;;3.43;2.70;;;7.60;1.00;;;;;;5035802;28;20494;-39
2023/11/09 03:05:22;;;;;;;3.13;2.77;;;7.60;1.00;;;;;;5038009;28;20179;-39
2023/11/09 03:14:33;;;;;;;4.73;3.13;;;7.60;1.00;;;;;;5017064;28;20548;-39
2023/11/09 03:17:06;;;;;;;3.17;2.70;;;7.70;1.00;;;;;;5016931;28;20432;-40
2023/11/09 03:19:32;;;;;;;3.87;2.90;;;7.70;1.00;;;;;;5015632;28;20430;-40
2023/11/09 03:21:58;;;;;;;3.50;2.90;;;7.70;1.00;;;;;;5016573;28;20920;-41
2023/11/09 03:24:23;;;;;;;4.37;3.87;;;7.70;1.00;;;;;;5016911;28;20422;-38
2023/11/09 03:26:49;;;;;;;4.57;2.97;;;7.70;1.00;;;;;;5016925;28;20184;-37
2023/11/09 03:29:14;;;;;;;4.83;2.70;;;7.70;1.00;;;;;;5016022;28;20187;-38
2023/11/09 03:31:40;;;;;;;3.77;2.83;;;7.70;1.00;;;;;;5016865;28;20179;-39
2023/11/09 03:34:06;;;;;;;3.53;3.10;;;7.70;1.00;;;;;;5015688;28;20195;-38
2023/11/09 03:36:32;;;;;;;4.00;3.40;;;7.70;1.00;;;;;;5013567;28;20191;-39
2023/11/09 03:38:58;;;;;;;3.43;3.10;;;7.70;1.00;;;;;;5015557;28;20430;-40
2023/11/09 03:41:25;;;;;;;3.43;3.13;;;7.70;1.00;;;;;;5016858;28;20218;-39
2023/11/09 03:43:50;;;;;;;4.87;3.70;;;7.70;1.00;;;;;;5016402;28;20278;-38
2023/11/09 03:46:16;;;;;;;3.90;3.40;;;7.70;1.00;;;;;;5014842;28;20492;-41
2023/11/09 03:48:42;;;;;;;4.83;4.30;;;7.70;1.00;;;;;;5015343;28;20179;-40
2023/11/09 03:51:08;;;;;;;3.73;3.30;;;7.60;1.00;;;;;;5016937;28;20179;-41
2023/11/09 03:53:33;;;;;;;4.10;3.30;;;7.60;1.00;;;;;;5016556;28;20562;-39
2023/11/09 03:55:59;;;;;;;3.57;3.27;;;7.60;1.00;;;;;;5016021;28;20466;-38
2023/11/09 03:58:25;;;;;;;5.87;3.90;;;7.60;1.00;;;;;;5016786;28;20251;-38
2023/11/09 04:00:51;;;;;;;4.10;3.70;;;7.60;1.00;;;;;;5019903;28;20596;-38
2023/11/09 04:03:16;;;;;;;3.60;3.27;;;7.60;1.00;;;;;;5018237;28;20220;-39
2023/11/09 04:05:42;;;;;;;5.93;3.00;;;7.60;1.00;;;;;;5020293;28;20413;-39
2023/11/09 04:08:08;;;;;;;3.70;3.40;;;7.60;17.00;;;;;;5018046;28;20183;-39
2023/11/09 04:10:34;;;;;;;3.57;3.27;;;7.60;22.30;;;;;;5018382;28;20183;-39
2023/11/09 04:12:59;;;;;;;4.77;3.70;;;7.60;30.50;;;;;;5018149;28;20478;-40
2023/11/09 04:15:25;;;;;;;3.97;3.20;;;7.50;39.00;;;;;;5018590;28;20218;-40
2023/11/09 04:17:51;;;;;;;4.07;3.60;;;7.60;44.30;;;;;;5018159;28;20195;-39
2023/11/09 04:20:16;;;;;;;4.07;3.60;;;7.50;39.10;;;;;;5018356;28;20373;-39
2023/11/09 04:22:43;;;;;;;4.47;3.80;;;7.60;47.30;;;;;;5018232;28;20187;-45
2023/11/09 04:25:10;;;;;;;6.23;3.40;;;7.50;53.40;;;;;;5019111;28;20206;-39
2023/11/09 04:27:37;;;;;;;4.33;3.80;;;7.60;52.60;;;;;;5019682;28;20410;-40
2023/11/09 04:30:03;;;;;;;5.20;4.10;;;7.50;52.70;;;;;;5018265;28;20433;-39
2023/11/09 04:32:30;;;;;;;5.10;3.80;;;7.60;59.40;;;;;;5019632;28;20458;-39
2023/11/09 04:34:56;;;;;;;4.17;3.87;;;7.50;62.50;;;;;;5019038;28;20434;-39
2023/11/09 04:37:25;;;;;;;5.77;4.53;;;7.50;88.40;;;;;;5019502;28;20518;-39
2023/11/09 04:39:57;;;;;;;4.73;4.17;;;7.50;89.70;;;;;;5018575;28;20691;-40
2023/11/09 04:42:29;;;;;;;5.37;4.87;;;7.50;97.30;;;;;;5019796;28;20694;-40
2023/11/09 04:44:56;;;;;;;4.27;3.87;;;7.50;94.30;;;;;;5017068;28;20430;-39
2023/11/09 04:47:25;;;;;;;4.93;4.17;;;7.50;99.90;;;;;;5018683;28;20432;-41
2023/11/09 04:49:58;;;;;;;4.10;3.70;;;7.50;99.90;;;;;;5017782;28;20496;-39
2023/11/09 04:52:29;;;;;;;5.40;4.60;;;7.50;99.90;;;;;;5016510;28;20930;-39
2023/11/09 04:55:43;;;;;;;4.43;4.00;;;7.50;99.90;;;;;;5018764;28;20426;-40
2023/11/09 05:08:41;;;;;;;4.40;4.00;;;7.60;67.90;;;;;;5018092;28;20441;-40
2023/11/09 05:11:09;;;;;;;4.40;3.97;;;7.60;31.60;;;;;;5015110;28;20870;-39
2023/11/09 05:13:35;;;;;;;4.93;3.97;;;7.60;24.40;;;;;;5016142;28;20926;-39
2023/11/09 05:16:01;;;;;;;4.40;3.83;;;7.60;10.00;;;;;;5016767;28;20697;-41
2023/11/09 05:18:26;;;;;;;4.30;3.83;;;7.60;1.00;;;;;;5014332;28;20688;-39
2023/11/09 05:20:52;;;;;;;4.50;4.10;;;7.60;1.00;;;;;;5014676;28;20469;-39
2023/11/09 05:23:18;;;;;;;5.50;3.60;;;7.60;1.00;;;;;;5013931;28;20250;-39
2023/11/09 05:25:45;;;;;;;5.07;4.57;;;7.60;1.00;;;;;;5013914;28;20191;-39
2023/11/09 05:28:10;;;;;;;4.40;3.27;;;7.60;1.00;;;;;;5014438;28;20430;-39
2023/11/09 05:30:36;;;;;;;4.70;4.10;;;7.60;1.00;;;;;;5013945;28;20645;-41
2023/11/09 05:33:02;;;;;;;4.70;4.20;;;7.70;1.00;;;;;;5014039;28;20194;-40
2023/11/09 05:35:27;;;;;;;4.83;3.70;;;7.60;1.00;;;;;;5013297;28;20234;-40
2023/11/09 05:37:56;;;;;;;4.40;4.00;;;7.60;1.00;;;;;;5016525;28;20282;-39
2023/11/09 05:40:21;;;;;;;4.93;3.70;;;7.60;1.00;;;;;;5015670;28;20215;-40
2023/11/09 05:42:47;;;;;;;4.43;3.83;;;7.60;1.00;;;;;;5016063;28;20850;-40
2023/11/09 05:45:13;;;;;;;4.10;3.70;;;7.60;1.00;;;;;;5016553;28;20457;-40
2023/11/09 05:47:40;;;;;;;3.87;3.47;;;7.60;1.00;;;;;;5015202;28;20222;-40
2023/11/09 05:50:08;;;;;;;4.70;4.13;;;7.60;1.00;;;;;;4998281;28;20422;-39
2023/11/09 05:52:34;;;;;;;5.17;4.20;;;7.60;1.00;;;;;;5015541;28;20430;-38
2023/11/09 05:54:59;;;;;;;4.40;3.73;;;7.60;1.00;;;;;;5016320;28;20437;-40
2023/11/09 05:57:25;;;;;;;8.03;3.90;;;7.70;1.00;;;;;;5014071;28;20510;-39
2023/11/09 05:59:51;;;;;;;7.27;4.00;;;7.60;1.00;;;;;;5011349;28;20183;-41
2023/11/09 06:02:16;;;;;;;4.27;3.57;;;7.70;1.00;;;;;;5013675;28;20455;-40
2023/11/09 06:04:42;;;;;;;5.10;3.70;;;7.70;1.00;;;;;;5011245;28;20213;-39
2023/11/09 06:07:11;;;;;;;4.27;3.87;;;7.70;1.00;;;;;;5011257;28;20497;-40
2023/11/09 06:09:38;;;;;;;4.23;3.80;;;7.70;1.00;;;;;;5010104;28;20496;-39
2023/11/09 06:12:09;;;;;;;4.40;4.00;;;7.70;1.00;;;;;;5011099;28;20416;-40
2023/11/09 06:14:36;;;;;;;3.53;3.23;;;7.70;1.00;;;;;;5012783;28;20572;-38
2023/11/09 06:17:01;;;;;;;5.97;3.70;;;7.80;1.00;;;;;;5011830;28;20434;-40
2023/11/09 06:19:28;;;;;;;3.33;3.03;;;7.80;99.90;;;;;;5010692;28;20440;-40
2023/11/09 06:21:56;;;;;;;7.70;3.50;;;7.80;99.90;;;;;;4998420;28;20219;-40
2023/11/09 06:24:23;;;;;;;4.87;3.53;;;7.80;99.90;;;;;;4987562;28;20403;-40
2023/11/09 06:26:53;;;;;;;4.00;3.40;;;7.80;99.90;;;;;;4991031;28;20466;-40
2023/11/09 06:29:19;;;;;;;6.53;4.23;;;7.80;99.90;;;;;;4991827;28;20670;-40
2023/11/09 06:31:45;;;;;;;5.17;3.70;;;7.80;99.90;;;;;;4989850;28;20461;-41
2023/11/09 06:34:14;;;;;;;3.90;3.50;;;7.90;99.90;;;;;;4974517;28;20745;-39
2023/11/09 06:36:43;;;;;;;4.30;3.90;;;7.90;99.90;;;;;;4992825;28;20584;-38
2023/11/09 06:39:17;;;;;;;4.30;3.33;;;7.90;99.90;;;;;;4991235;28;20502;-40
2023/11/09 06:41:47;;;;;;;3.00;2.57;;;7.90;99.90;;;;;;4987861;28;20506;-41
2023/11/09 06:44:14;;;;;;;4.20;3.20;;;7.90;99.90;;;;;;4991503;28;20438;-40
2023/11/09 06:46:44;;;;;;;4.93;2.90;;;7.90;99.90;;;;;;4976154;28;20442;-40
2023/11/09 06:49:13;;;;;;;4.00;3.27;;;8.00;99.90;;;;;;4991611;28;20469;-40
2023/11/09 06:51:38;;;;;;;3.27;2.60;;;8.00;99.90;;;;;;4991577;28;20419;-39
2023/11/09 06:54:05;;;;;;;3.20;2.90;;;8.00;99.90;;;;;;4991846;28;20469;-39
2023/11/09 06:56:32;;;;;;;3.57;3.13;;;8.10;99.90;;;;;;4991666;28;20192;-38
2023/11/09 06:58:59;;;;;;;5.00;3.03;;;8.10;95.90;;;;;;4991002;28;20438;-38
2023/11/09 07:01:25;;;;;;;2.87;2.60;;;8.10;52.70;;;;;;4991982;28;20478;-39
2023/11/09 07:03:51;;;;;;;3.10;2.60;;;8.20;25.70;;;;;;4993446;28;20419;-39
2023/11/09 07:06:18;;;;;;;3.87;3.03;;;8.20;5.70;;;;;;4992179;28;20250;-39
2023/11/09 07:08:44;;;;;;;3.63;3.30;;;8.30;1.00;;;;;;4993180;28;20447;-39
2023/11/09 07:11:10;;;;;;;2.97;2.60;;;8.30;1.00;;;;;;4996677;28;20443;-40
2023/11/09 07:13:37;;;;;;;4.30;3.17;;;8.30;1.00;;;;;;5006498;28;20309;-39
2023/11/09 07:16:07;;;;;;;4.60;3.20;;;8.40;1.00;;;;;;5010929;28;20673;-39
2023/11/09 07:18:33;;;;;;;4.47;3.40;;;8.40;1.00;;;;;;4978311;28;20422;-41
2023/11/09 07:20:59;;;;;;;7.50;3.50;;;8.40;1.00;;;;;;4995602;28;20881;-41
2023/11/09 07:23:27;;;;;;;3.80;2.87;;;8.50;1.00;;;;;;4996674;28;20452;-40
2023/11/09 07:25:53;;;;;;;3.70;2.80;;;8.50;1.00;;;;;;5010659;28;20211;-40
2023/11/09 07:28:20;;;;;;;4.43;3.20;;;8.50;1.00;;;;;;5002845;28;20926;-39
2023/11/09 07:30:48;;;;;;;3.10;2.80;;;8.50;1.00;;;;;;5011567;28;20819;-39
2023/11/09 07:33:14;;;;;;;3.30;3.00;;;8.50;1.00;;;;;;5011031;28;20505;-38
2023/11/09 07:35:44;;;;;;;4.00;3.60;;;8.60;1.00;;;;;;5011749;28;20418;-40
2023/11/09 07:38:13;;;;;;;3.63;3.33;;;8.60;1.00;;;;;;5012636;28;20980;-41
2023/11/09 07:40:40;;;;;;;3.43;2.50;;;8.70;1.00;;;;;;4992807;28;20881;-38
2023/11/09 07:43:08;;;;;;;2.20;1.93;;;8.70;1.00;;;;;;5008814;28;20667;-39
2023/11/09 07:45:34;;;;;;;2.63;2.43;;;8.80;1.00;;;;;;5009950;28;20832;-39
2023/11/09 07:48:00;;;;;;;3.03;2.43;;;8.80;1.00;;;;;;5013020;28;20684;-41
2023/11/09 07:50:26;;;;;;;11.13;4.20;;;8.90;1.00;;;;;;5011866;28;20430;-41
2023/11/09 07:52:52;;;;;;;5.93;4.10;;;9.20;1.00;;;;;;5012528;28;20347;-42
2023/11/09 07:55:19;;;;;;;5.53;4.07;;;10.00;1.00;;;;;;5011379;28;20262;-40
2023/11/09 07:57:48;;;;;;;5.13;3.77;;;10.80;1.00;;;;;;5011670;28;20418;-39
2023/11/09 08:00:15;;;;;;;4.60;3.50;;;11.10;1.00;;;;;;5012032;28;20772;-39
2023/11/09 08:02:41;;;;;;;4.27;3.80;;;11.10;99.90;;;;;;4994853;28;20444;-39
2023/11/09 08:05:13;;;;;;;4.60;3.30;;;10.90;99.90;;;;;;5012235;28;20840;-39
2023/11/09 08:07:40;;;;;;;3.37;3.03;;;10.80;1.00;;;;;;5013446;28;20430;-38
2023/11/09 08:10:06;;;;;;;3.63;3.00;;;10.60;99.90;;;;;;5012457;28;20512;-40
2023/11/09 08:12:33;;;;;;;3.30;3.00;;;10.40;42.40;;;;;;5010739;28;20843;-38
2023/11/09 08:14:59;;;;;;;3.90;3.33;;;10.30;1.00;;;;;;5009669;28;20521;-38
2023/11/09 08:17:26;;;;;;;5.40;3.27;;;10.20;61.80;;;;;;5012884;28;20595;-39
2023/11/09 08:19:52;;;;;;;3.60;2.50;;;10.20;1.00;;;;;;5012818;28;20454;-41
2023/11/09 08:22:19;;;;;;;3.23;2.63;;;10.10;99.90;;;;;;5014283;28;20652;-39
2023/11/09 08:24:45;;;;;;;3.30;2.90;;;10.10;1.00;;;;;;5011397;28;20472;-40
2023/11/09 08:27:12;;;;;;;3.63;3.30;;;10.10;99.90;;;;;;5012849;28;20422;-40
2023/11/09 08:29:38;;;;;;;3.23;2.60;;;10.10;99.90;;;;;;5009031;28;20422;-41
2023/11/09 08:32:05;;;;;;;3.80;3.50;;;10.10;76.20;;;;;;5010975;28;20430;-39
2023/11/09 08:34:31;;;;;;;5.20;3.03;;;10.00;1.00;;;;;;5014148;28;20520;-39
2023/11/09 08:36:57;;;;;;;4.37;3.13;;;10.00;1.00;;;;;;4995685;28;20532;-41
2023/11/09 08:39:22;;;;;;;3.70;3.23;;;10.00;1.00;;;;;;5012928;28;20456;-37
2023/11/09 08:41:48;;;;;;;6.00;3.50;;;10.00;1.00;;;;;;5013643;28;20574;-38
2023/11/09 08:44:15;;;;;;;3.90;3.50;;;10.00;1.00;;;;;;5013668;28;20187;-39
2023/11/09 08:46:41;;;;;;;3.43;3.00;;;10.10;1.00;;;;;;4996010;28;21375;-38
2023/11/09 08:49:07;;;;;;;5.27;3.80;;;10.10;1.00;;;;;;5015021;28;20432;-39
2023/11/09 08:51:34;;;;;;;5.07;3.90;;;10.20;99.90;;;;;;5015129;28;20431;-38
2023/11/09 08:54:01;;;;;;;4.23;3.47;;;10.20;99.90;;;;;;4999434;28;20418;-39
2023/11/09 08:56:28;;;;;;;3.60;3.30;;;10.30;99.90;;;;;;5015513;28;20428;-39
2023/11/09 08:58:53;;;;;;;4.70;3.67;;;10.30;99.90;;;;;;5015005;28;20445;-39
2023/11/09 09:01:19;;;;;;;2.93;2.67;;;10.40;99.90;;;;;;5014739;28;20466;-39
2023/11/09 09:03:46;;;;;;;3.53;3.23;;;10.50;99.90;;;;;;5014957;28;20191;-39
2023/11/09 09:06:13;;;;;;;4.10;3.70;;;10.70;99.90;;;;;;5015843;28;20210;-44
2023/11/09 09:08:39;;;;;;;3.50;2.97;;;10.80;99.90;;;;;;5015869;28;20528;-40
2023/11/09 09:11:05;;;;;;;2.93;2.63;;;10.90;99.90;;;;;;5015272;28;20440;-39
2023/11/09 09:13:31;;;;;;;3.10;2.73;;;11.00;99.90;;;;;;5014552;28;20551;-40
2023/11/09 09:15:57;;;;;;;3.90;2.60;;;11.10;99.90;;;;;;5015616;28;20434;-39
2023/11/09 09:18:24;;;;;;;3.73;2.60;;;11.20;99.90;;;;;;5016028;28;20418;-38
2023/11/09 09:20:50;;;;;;;3.67;2.47;;;11.30;99.90;;;;;;5017733;28;20222;-39
2023/11/09 09:23:16;;;;;;;2.40;2.10;;;11.40;99.90;;;;;;5016333;28;20434;-39
2023/11/09 09:25:42;;;;;;;3.17;1.87;;;11.40;99.90;;;;;;5016661;28;20882;-41
2023/11/09 09:28:09;;;;;;;2.30;2.07;;;11.50;99.90;;;;;;5017332;28;20422;-40
2023/11/09 09:30:36;;;;;;;2.83;2.50;;;11.50;99.90;;;;;;5016739;28;20426;-38
2023/11/09 09:33:03;;;;;;;2.03;1.83;;;11.60;99.90;;;;;;5017907;28;20430;-39
2023/11/09 09:35:30;;;;;;;3.03;2.70;;;11.60;99.60;;;;;;5015174;28;20537;-40
2023/11/09 09:38:02;;;;;;;3.27;2.13;;;11.60;96.80;;;;;;4999475;28;20517;-38
2023/11/09 09:40:29;;;;;;;3.20;2.30;;;11.70;89.50;;;;;;5015768;28;20841;-39
2023/11/09 09:42:56;;;;;;;3.40;2.27;;;11.80;75.30;;;;;;5016613;28;20517;-39
2023/11/09 09:45:27;;;;;;;3.87;2.20;;;11.80;65.00;;;;;;5016780;28;20441;-40
2023/11/09 09:47:58;;;;;;;2.70;1.90;;;11.80;56.10;;;;;;5017330;28;20426;-40
2023/11/09 09:50:26;;;;;;;2.77;2.10;;;11.80;47.00;;;;;;5017962;28;20520;-39
2023/11/09 09:52:59;;;;;;;2.90;2.27;;;11.80;40.10;;;;;;5017107;28;20442;-39
2023/11/09 09:55:28;;;;;;;9.43;2.70;;;11.80;40.50;;;;;;5016331;28;20415;-39
2023/11/09 09:57:59;;;;;;;2.63;2.23;;;11.80;38.20;;;;;;4999466;28;20425;-38
2023/11/09 10:00:28;;;;;;;2.43;1.83;;;11.90;37.20;;;;;;5016253;28;20500;-39
2023/11/09 10:02:56;;;;;;;4.50;2.13;;;11.90;37.10;;;;;;5015838;28;20429;-41
2023/11/09 10:05:24;;;;;;;2.60;1.70;;;12.00;37.30;;;;;;4998425;28;20669;-38
2023/11/09 10:08:08;;;;;;;2.10;1.90;;;12.00;35.10;;;;;;5016502;28;20533;-39
2023/11/09 10:10:36;;;;;;;2.23;1.73;;;12.10;34.40;;;;;;5017250;28;20600;-38
2023/11/09 10:13:09;;;;;;;2.70;1.73;;;12.20;29.20;;;;;;5010524;28;20545;-38
2023/11/09 10:15:36;;;;;;;1.90;1.50;;;12.30;28.10;;;;;;4995754;28;20753;-39
2023/11/09 10:18:03;;;;;;;1.90;1.33;;;12.40;24.60;;;;;;4995158;28;20517;-39
2023/11/09 10:20:29;;;;;;;2.50;1.90;;;12.40;23.20;;;;;;4997423;28;20541;-41
2023/11/09 10:22:57;;;;;;;2.00;1.80;;;12.50;21.70;;;;;;4996785;28;20817;-39
2023/11/09 10:25:27;;;;;;;2.47;1.90;;;12.40;22.60;;;;;;4996203;28;20463;-40
2023/11/09 10:28:00;;;;;;;1.90;1.53;;;12.40;34.30;;;;;;4994896;28;20422;-39
2023/11/09 10:30:41;;;;;;;2.10;1.60;;;12.50;26.30;;;;;;4994884;28;20439;-40
2023/11/09 10:33:10;;;;;;;2.13;1.40;;;12.50;28.00;;;;;;4996844;28;20466;-41
2023/11/09 10:35:37;;;;;;;3.03;1.90;;;12.60;29.80;;;;;;4996571;28;20415;-39
2023/11/09 10:38:07;;;;;;;1.93;1.30;;;12.60;32.10;;;;;;4996354;28;20682;-38
2023/11/09 10:40:34;;;;;;;1.67;1.20;;;12.70;32.90;;;;;;4996698;28;20473;-38
2023/11/09 10:43:04;;;;;;;1.90;1.30;;;12.70;33.00;;;;;;4995774;28;20438;-40
2023/11/09 10:45:36;;;;;;;1.80;1.30;;;12.90;32.50;;;;;;4995768;28;20458;-39
2023/11/09 10:48:09;;;;;;;1.80;1.30;;;12.90;30.10;;;;;;4994415;28;20514;-41
2023/11/09 10:50:44;;;;;;;1.30;0.90;;;12.90;31.60;;;;;;4994533;28;20426;-39
2023/11/09 10:53:13;;;;;;;1.93;1.20;;;13.00;35.80;;;;;;4995217;28;20488;-41
2023/11/09 10:55:38;;;;;;;1.70;1.13;;;13.10;36.50;;;;;;4993819;28;20588;-38
2023/11/09 10:58:05;;;;;;;1.40;1.00;;;13.20;39.90;;;;;;4992957;28;20518;-38
2023/11/09 11:00:42;;;;;;;2.67;1.20;;;13.40;36.70;;;;;;4994627;28;20463;-41
2023/11/09 11:03:32;;;;;;;1.20;1.03;;;13.50;31.30;;;;;;4994869;28;20489;-40
2023/11/09 11:06:03;;;;;;;1.67;1.23;;;13.60;23.30;;;;;;4994104;28;20439;-41
2023/11/09 11:08:35;;;;;;;1.93;1.00;;;13.70;17.10;;;;;;4991863;28;20457;-39
2023/11/09 11:11:02;;;;;;;1.53;1.00;;;13.70;13.60;;;;;;4993604;28;20450;-40
2023/11/09 11:13:29;;;;;;;1.13;0.77;;;13.70;11.80;;;;;;4992861;28;20824;-40
2023/11/09 11:16:10;;;;;;;1.40;1.00;;;13.70;11.70;;;;;;4994158;28;20702;-39
2023/11/09 11:19:06;;;;;;;1.93;1.10;;;13.60;13.00;;;;;;4995849;28;20701;-38
2023/11/09 11:22:04;;;;;;;1.57;1.00;;;13.60;12.00;;;;;;4973960;28;20484;-43
2023/11/09 11:25:14;;;;;;;1.67;1.00;;;13.50;13.60;;;;;;4992546;28;20425;-38
2023/11/09 11:27:48;;;;;;;1.33;0.93;;;13.40;15.10;;;;;;4993295;28;20678;-38
2023/11/09 11:30:26;;;;;;;1.40;1.00;;;13.40;16.50;;;;;;5010575;28;20441;-40
2023/11/09 11:32:59;;;;;;;1.47;0.87;;;13.40;18.90;;;;;;4995306;28;20422;-40
2023/11/09 11:35:39;;;;;;;2.30;1.00;;;13.40;19.90;;;;;;4992200;28;20843;-39
2023/11/09 11:38:13;;;;;;;1.80;1.03;;;13.40;20.60;;;;;;4992738;28;20473;-39
2023/11/09 11:40:39;;;;;;;1.90;1.13;;;13.40;21.90;;;;;;4992332;28;20466;-38
2023/11/09 11:43:06;;;;;;;1.77;1.20;;;13.40;23.00;;;;;;4992187;28;20435;-38
2023/11/09 11:45:35;;;;;;;1.60;0.90;;;13.30;25.40;;;;;;4991829;28;20610;-39
2023/11/09 11:48:01;;;;;;;1.87;0.90;;;13.30;28.00;;;;;;4991011;28;20496;-37
2023/11/09 11:50:27;;;;;;;1.93;1.00;;;13.30;32.10;;;;;;4990025;28;20427;-39
2023/11/09 11:53:00;;;;;;;1.67;1.13;;;13.30;37.50;;;;;;4991954;28;20466;-38
2023/11/09 11:55:33;;;;;;;2.00;0.97;;;13.30;43.60;;;;;;4992985;28;20450;-38
2023/11/09 11:58:06;;;;;;;2.27;1.10;;;13.40;41.90;;;;;;4992612;28;20713;-38
2023/11/09 12:00:41;;;;;;;2.03;0.83;;;13.50;36.80;;;;;;4991362;28;21000;-40
2023/11/09 12:03:12;;;;;;;2.50;1.07;;;13.60;32.70;;;;;;4993981;28;20434;-40
2023/11/09 12:05:40;;;;;;;1.20;0.70;;;13.80;27.70;;;;;;4993980;28;20826;-38
2023/11/09 12:08:12;;;;;;;1.43;0.73;;;14.10;18.40;;;;;;4992597;28;20495;-39
2023/11/09 12:10:39;;;;;;;1.00;0.60;;;14.60;9.60;;;;;;4991828;28;20423;-40
2023/11/09 12:13:05;;;;;;;1.43;0.80;;;15.00;1.00;;;;;;4997955;28;20485;-39
2023/11/09 12:15:30;;;;;;;1.10;0.67;;;15.20;1.00;;;;;;5013915;28;20901;-41
2023/11/09 12:17:56;;;;;;;1.00;0.50;;;15.40;1.00;;;;;;5013502;28;20210;-44
2023/11/09 12:20:23;;;;;;;0.90;0.40;;;15.40;1.00;;;;;;5011310;28;20539;-39
2023/11/09 12:22:49;;;;;;;1.20;0.63;;;15.30;1.00;;;;;;5017251;28;20469;-39
2023/11/09 12:25:18;;;;;;;1.30;0.80;;;15.30;1.00;;;;;;4999454;28;21128;-44
2023/11/09 12:27:45;;;;;;;2.07;0.60;;;15.20;1.00;;;;;;5017295;28;20947;-41
2023/11/09 12:30:11;;;;;;;1.53;0.60;;;15.10;1.00;;;;;;5018323;28;20500;-40
2023/11/09 12:32:38;;;;;;;1.10;0.50;;;15.10;1.00;;;;;;5016621;28;20853;-39
2023/11/09 12:35:11;;;;;;;0.90;0.47;;;15.10;1.00;;;;;;5001201;28;20417;-39
2023/11/09 12:37:42;;;;;;;6.40;0.90;;;15.10;1.00;;;;;;5017220;28;20492;-39
2023/11/09 12:40:11;;;;;;;0.80;0.47;;;15.10;1.00;;;;;;5017595;28;20447;-40
2023/11/09 12:42:39;;;;;;;1.60;0.80;;;15.30;1.00;;;;;;5017592;28;20900;-42
2023/11/09 12:45:10;;;;;;;1.70;0.63;;;15.40;1.00;;;;;;5015471;28;20579;-40
2023/11/09 12:47:38;;;;;;;1.40;0.63;;;15.40;1.00;;;;;;5017500;28;20510;-40
2023/11/09 12:50:05;;;;;;;1.20;0.60;;;15.40;1.00;;;;;;5017057;28;20524;-40
2023/11/09 12:52:34;;;;;;;1.20;0.80;;;15.30;1.00;;;;;;5017345;28;20430;-40
2023/11/09 12:55:06;;;;;;;2.50;0.80;;;15.20;1.00;;;;;;5016039;28;20879;-39
2023/11/09 12:57:35;;;;;;;2.17;0.60;;;15.40;1.00;;;;;;5014439;28;20484;-40
2023/11/09 13:00:04;;;;;;;0.90;0.50;;;15.40;1.00;;;;;;5014687;28;20475;-40
2023/11/09 13:02:42;;;;;;;1.83;0.50;;;15.50;1.00;;;;;;4998896;28;20470;-39
2023/11/09 13:05:09;;;;;;;1.87;0.63;;;15.50;1.00;;;;;;5015589;28;20410;-39
2023/11/09 13:07:35;;;;;;;1.60;0.80;;;15.40;1.00;;;;;;5016750;28;20433;-39
2023/11/09 13:10:24;;;;;;;2.00;0.90;;;15.40;1.00;;;;;;5017758;28;20711;-42
2023/11/09 13:12:51;;;;;;;2.30;0.60;;;15.40;1.00;;;;;;5014949;28;20222;-40
2023/11/09 13:17:56;;;;;;;1.00;0.60;;;15.20;1.00;;;;;;5016772;28;20433;-39
2023/11/09 13:20:36;;;;;;;1.40;0.90;;;15.20;1.00;;;;;;5017995;28;20418;-38